createdAt,value
2022-09-22T00:06:31.798Z,100062.59
2022-09-22T00:16:39.986Z,100066.25
2022-09-22T00:26:45.813Z,100064.56
2022-09-22T00:36:51.832Z,100066.38
2022-09-22T00:47:01.165Z,100058.84
2022-09-22T00:57:12.854Z,100056.02
2022-09-22T01:07:19.223Z,100056.23
2022-09-22T01:17:32.073Z,100057.07
2022-09-22T01:28:07.337Z,100062.50
2022-09-22T01:38:16.539Z,100052.11
2022-09-22T01:48:27.706Z,100046.95
2022-09-22T01:58:36.715Z,100047.16
2022-09-22T02:08:48.595Z,100051.64
2022-09-22T02:19:06.280Z,100049.00
2022-09-22T02:29:17.943Z,100049.66
2022-09-22T02:39:30.130Z,100048.20
2022-09-22T02:49:36.403Z,100046.95
2022-09-22T02:59:42.099Z,100045.75
2022-09-22T03:09:47.923Z,100049.98
2022-09-22T03:19:53.731Z,100048.33
2022-09-22T03:29:59.361Z,100042.30
2022-09-22T03:40:06.453Z,100047.87
2022-09-22T03:50:13.582Z,100049.90
2022-09-22T04:00:19.708Z,100052.06
2022-09-22T04:10:26.417Z,100053.02
2022-09-22T04:20:32.229Z,100055.72
2022-09-22T04:30:38.328Z,100054.08
2022-09-22T04:40:44.178Z,100057.70
2022-09-22T04:50:49.900Z,100060.88
2022-09-22T05:00:56.836Z,100058.65
2022-09-22T05:11:03.498Z,100065.77
2022-09-22T05:21:09.538Z,100068.94
2022-09-22T05:31:15.222Z,100065.88
2022-09-22T05:41:21.044Z,100069.42
2022-09-22T05:51:26.828Z,100073.14
2022-09-22T06:01:32.515Z,100076.50
2022-09-22T06:11:38.392Z,100080.38
2022-09-22T06:21:44.076Z,100081.15
2022-09-22T06:31:49.985Z,100086.58
2022-09-22T06:41:57.432Z,100088.24
2022-09-22T06:52:03.765Z,100094.02
2022-09-22T07:02:10.643Z,100096.27
2022-09-22T07:12:17.912Z,100094.04
2022-09-22T07:22:23.878Z,100094.84
2022-09-22T07:32:35.131Z,100094.15
2022-09-22T07:42:40.707Z,100093.04
2022-09-22T07:52:53.249Z,100086.36
2022-09-22T08:03:00.106Z,100085.03
2022-09-22T08:13:05.770Z,100088.31
2022-09-22T08:23:11.557Z,100091.20
2022-09-22T08:33:17.570Z,100095.36
2022-09-22T08:43:23.293Z,100093.77
2022-09-22T08:53:32.361Z,100085.30
2022-09-22T09:03:54.922Z,100089.96
2022-09-22T09:14:13.785Z,100090.53
2022-09-22T09:34:55.951Z,100087.62
2022-09-22T09:45:02.811Z,100083.54
2022-09-22T09:55:19.884Z,100084.17
2022-09-22T10:05:26.798Z,100087.71
2022-09-22T10:15:33.985Z,100078.83
2022-09-22T10:25:39.698Z,100071.84
2022-09-22T10:35:47.900Z,100076.55
2022-09-22T10:46:08.278Z,100072.39
2022-09-22T10:56:23.556Z,100054.67
2022-09-22T11:07:01.094Z,100051.11
2022-09-22T11:17:16.511Z,100045.22
2022-09-22T11:27:28.560Z,100039.52
2022-09-22T11:37:50.400Z,100044.94
2022-09-22T11:48:10.676Z,100042.98
2022-09-22T11:58:20.766Z,100038.39
2022-09-22T12:08:32.487Z,100033.10
2022-09-22T12:18:46.767Z,100032.61
2022-09-22T12:28:52.462Z,100026.84
2022-09-22T12:39:09.928Z,100021.11
2022-09-22T12:49:19.913Z,100013.66
2022-09-22T12:59:56.432Z,100016.68
2022-09-22T13:10:32.809Z,100017.92
2022-09-22T13:20:38.638Z,100011.70
2022-09-22T13:30:45.563Z,100005.64
2022-09-22T13:40:52.808Z,100002.27
2022-09-22T13:51:09.363Z,99997.23
2022-09-22T14:01:19.057Z,99991.79
2022-09-22T14:11:27.034Z,99989.73
2022-09-22T14:21:33.362Z,99992.16
2022-09-22T14:31:42.556Z,99998.08
2022-09-22T14:41:59.187Z,99999.61
2022-09-22T14:52:07.454Z,99994.54
2022-09-22T15:02:30.937Z,99991.24
2022-09-22T15:12:40.597Z,99993.23
2022-09-22T15:22:48.076Z,99987.90
2022-09-22T15:32:53.720Z,99984.13
2022-09-22T15:43:12.730Z,99989.02
2022-09-22T15:53:18.964Z,99985.80
2022-09-22T16:03:26.259Z,99989.29
2022-09-22T16:13:33.107Z,99994.88
2022-09-22T16:23:38.673Z,99998.11
2022-09-22T16:33:44.997Z,100001.54
2022-09-22T16:43:51.122Z,100004.10
2022-09-22T16:53:57.222Z,100000.28
2022-09-22T17:04:03.282Z,99998.19
2022-09-22T17:14:13.668Z,100006.42
2022-09-22T17:24:19.531Z,100014.54
2022-09-22T17:34:25.242Z,100014.55
2022-09-22T17:44:33.568Z,100016.15
2022-09-22T17:54:58.079Z,100016.96
2022-09-22T18:05:04.436Z,100018.86
2022-09-22T18:15:13.464Z,100024.52
2022-09-22T18:25:24.004Z,100032.31
2022-09-22T18:35:32.273Z,100035.92
2022-09-22T18:45:38.357Z,100027.89
2022-09-22T18:55:44.806Z,100034.80
2022-09-22T19:05:50.619Z,100038.20
2022-09-22T19:15:58.047Z,100040.87
2022-09-22T19:26:04.190Z,100036.13
2022-09-22T19:36:10.682Z,100038.12
2022-09-22T19:46:16.534Z,100043.80
2022-09-22T19:56:22.265Z,100044.56
2022-09-22T20:06:28.341Z,100045.83
2022-09-22T20:16:34.052Z,100043.42
2022-09-22T20:26:40.296Z,100042.72
2022-09-22T20:36:46.574Z,100037.89
2022-09-22T20:46:52.496Z,100035.41
2022-09-22T20:56:58.435Z,100036.79
2022-09-22T21:07:04.592Z,100028.39
2022-09-22T21:17:10.438Z,100027.97
2022-09-22T21:27:16.363Z,100026.00
2022-09-22T21:37:25.025Z,100020.36
2022-09-22T21:47:31.428Z,100029.59
2022-09-22T21:57:37.203Z,100030.35
2022-09-22T22:07:42.952Z,100024.84
2022-09-22T22:17:48.581Z,100021.61
2022-09-22T22:27:56.780Z,100013.86
2022-09-22T22:38:02.476Z,100012.37
2022-09-22T22:48:08.121Z,100011.42
2022-09-22T22:58:13.738Z,100003.92
2022-09-22T23:08:19.407Z,99999.15
2022-09-22T23:18:25.135Z,99992.95
2022-09-22T23:28:33.643Z,99987.05
2022-09-22T23:38:39.301Z,99990.55
2022-09-22T23:48:44.944Z,99995.95
2022-09-22T23:58:51.155Z,99980.95
